Time;durP1;ratioP1;P1;durP2;ratioP2;P2;SDS_P1;SDS_P2;PMS_P1;PMS_P2;Temp;Humidity;BMP_temperature;BMP_pressure;BME280_temperature;BME280_humidity;BME280_pressure;Samples;Min_cycle;Max_cycle;Signal;HPM_P1;HPM_P2
2022/06/22 00:00:38;;;;;;;;;;;;;;;22.06;30.10;97031.44;5016743;28;980;-77
2022/06/22 00:03:04;;;;;;;;;;;;;;;22.09;30.18;97036.16;5016593;28;1084;-77
2022/06/22 00:05:42;;;;;;;;;;;;;;;22.27;29.81;97041.84;4967640;28;998;-77
2022/06/22 00:08:10;;;;;;;;;;;;;;;21.96;30.42;97055.34;4984000;28;933;-77
2022/06/22 00:10:39;;;;;;;;;;;;;;;21.86;30.65;97057.38;5000289;28;927;-78
2022/06/22 00:13:06;;;;;;;;;;;;;;;21.90;30.23;97057.22;5016334;28;1039;-77
2022/06/22 00:15:38;;;;;;;;;;;;;;;21.81;30.12;97055.16;5013795;28;977;-78
2022/06/22 00:18:25;;;;;;;;;;;;;;;21.86;30.10;97063.03;5000061;28;1910;-77
2022/06/22 00:20:51;;;;;;;;;;;;;;;21.90;30.05;97065.72;5016231;28;977;-77
2022/06/22 00:23:37;;;;;;;;;;;;;;;21.90;30.08;97082.72;5001249;28;917;-77
2022/06/22 00:26:06;;;;;;;;;;;;;;;22.03;29.92;97077.72;5018016;28;1042;-77
2022/06/22 00:28:33;;;;;;;;;;;;;;;21.90;29.82;97074.22;5017002;28;903;-76
2022/06/22 00:31:00;;;;;;;;;;;;;;;21.89;29.98;97078.31;5017390;28;1026;-78
2022/06/22 00:33:26;;;;;;;;;;;;;;;21.92;29.88;97071.72;5018444;28;1130;-77
2022/06/22 00:35:52;;;;;;;;;;;;;;;21.83;30.04;97067.59;5017933;28;1142;-78
2022/06/22 00:38:20;;;;;;;;;;;;;;;21.96;29.60;97073.13;5018378;28;1985;-77
2022/06/22 00:40:46;;;;;;;;;;;;;;;21.87;29.57;97075.97;5018280;28;943;-77
2022/06/22 00:43:13;;;;;;;;;;;;;;;22.17;29.16;97077.09;5016352;28;927;-77
2022/06/22 00:45:38;;;;;;;;;;;;;;;21.83;29.63;97081.78;5016759;28;974;-77
2022/06/22 00:48:12;;;;;;;;;;;;;;;21.82;29.65;97097.19;5016835;28;890;-77
2022/06/22 00:50:43;;;;;;;;;;;;;;;21.84;29.81;97094.66;5016563;28;892;-77
2022/06/22 00:53:19;;;;;;;;;;;;;;;21.88;29.76;97110.72;5018131;28;959;-78
2022/06/22 00:55:52;;;;;;;;;;;;;;;21.93;29.34;97107.28;5016561;28;949;-77
2022/06/22 00:58:22;;;;;;;;;;;;;;;21.85;29.38;97113.22;4995597;28;1910;-77
2022/06/22 01:00:51;;;;;;;;;;;;;;;21.69;29.56;97105.00;4979683;28;937;-77
2022/06/22 01:03:20;;;;;;;;;;;;;;;21.79;29.40;97115.09;4980230;28;1027;-77
2022/06/22 01:05:51;;;;;;;;;;;;;;;21.69;29.62;97116.34;4979724;28;1099;-78
2022/06/22 01:08:19;;;;;;;;;;;;;;;21.62;29.73;97116.63;4979636;28;1019;-77
2022/06/22 01:10:49;;;;;;;;;;;;;;;21.85;29.25;97118.91;4995965;28;1037;-77
2022/06/22 01:13:19;;;;;;;;;;;;;;;21.72;29.42;97109.75;4979803;28;966;-77
2022/06/22 01:15:57;;;;;;;;;;;;;;;21.84;29.38;97122.97;4992970;28;941;-77
2022/06/22 01:18:31;;;;;;;;;;;;;;;21.76;29.22;97120.91;4979309;28;1986;-77
2022/06/22 01:20:58;;;;;;;;;;;;;;;21.85;29.37;97127.38;4979564;28;1029;-77
2022/06/22 01:23:42;;;;;;;;;;;;;;;21.74;29.36;97132.72;4979310;28;963;-77
2022/06/22 01:26:07;;;;;;;;;;;;;;;21.62;29.48;97127.97;4995422;28;962;-77
2022/06/22 01:28:33;;;;;;;;;;;;;;;21.76;29.22;97137.91;4999803;28;987;-77
2022/06/22 01:31:03;;;;;;;;;;;;;;;21.70;29.28;97137.72;5017402;28;957;-77
2022/06/22 01:33:39;;;;;;;;;;;;;;;21.62;29.38;97144.94;5016356;28;1004;-77
2022/06/22 01:36:08;;;;;;;;;;;;;;;21.73;29.22;97139.63;5016813;28;1033;-78
2022/06/22 01:38:35;;;;;;;;;;;;;;;21.83;29.17;97138.41;5017226;28;1918;-77
2022/06/22 01:41:06;;;;;;;;;;;;;;;21.79;29.41;97143.41;5015797;28;991;-77
2022/06/22 01:43:40;;;;;;;;;;;;;;;21.77;29.51;97145.94;5017065;28;920;-78
2022/06/22 01:46:26;;;;;;;;;;;;;;;21.82;29.13;97148.16;4995219;28;970;-77
2022/06/22 01:48:57;;;;;;;;;;;;;;;21.85;29.05;97152.09;4995209;28;974;-76
2022/06/22 01:51:29;;;;;;;;;;;;;;;21.83;29.02;97151.78;4995134;28;991;-77
2022/06/22 01:54:03;;;;;;;;;;;;;;;21.75;29.53;97159.75;4978554;28;954;-77
2022/06/22 01:56:30;;;;;;;;;;;;;;;21.66;29.30;97165.41;4978853;28;1963;-78
2022/06/22 01:58:56;;;;;;;;;;;;;;;21.66;29.24;97168.25;4978751;28;966;-77
2022/06/22 02:01:24;;;;;;;;;;;;;;;21.89;29.02;97169.72;4994937;28;948;-77
2022/06/22 02:03:58;;;;;;;;;;;;;;;21.60;29.42;97172.91;4978819;28;1160;-77
2022/06/22 02:09:36;;;;;;;;;;;;;;;21.60;29.35;97181.41;4917752;29;1075;-77
2022/06/22 02:12:20;;;;;;;;;;;;;;;21.68;29.22;97171.38;4902772;29;962;-77
2022/06/22 02:14:49;;;;;;;;;;;;;;;21.67;29.12;97164.16;4904513;29;987;-77
2022/06/22 02:17:16;;;;;;;;;;;;;;;21.69;29.14;97167.28;4923363;29;2440;-77
2022/06/22 02:19:42;;;;;;;;;;;;;;;21.32;29.64;97167.13;4939930;29;1064;-77
2022/06/22 02:22:09;;;;;;;;;;;;;;;21.61;29.24;97171.69;4956338;29;1016;-77
2022/06/22 02:24:45;;;;;;;;;;;;;;;21.58;29.40;97181.09;4939913;29;1306;-77
2022/06/22 02:27:10;;;;;;;;;;;;;;;21.70;29.30;97177.34;4939820;29;1024;-77
2022/06/22 02:29:36;;;;;;;;;;;;;;;21.57;29.26;97171.03;4955848;29;963;-77
2022/06/22 02:32:02;;;;;;;;;;;;;;;21.68;29.28;97176.25;4956060;29;980;-77
2022/06/22 02:34:28;;;;;;;;;;;;;;;21.81;29.04;97186.25;4955686;29;983;-77
2022/06/22 02:36:53;;;;;;;;;;;;;;;21.64;29.40;97193.38;4939647;29;1976;-77
2022/06/22 02:39:19;;;;;;;;;;;;;;;21.50;29.62;97199.59;4956036;29;983;-77
2022/06/22 02:44:33;;;;;;;;;;;;;;;21.46;29.48;97196.91;4955593;29;1063;-77
2022/06/22 02:47:17;;;;;;;;;;;;;;;21.53;29.49;97198.69;5005549;28;956;-77
2022/06/22 02:49:55;;;;;;;;;;;;;;;21.52;29.72;97202.78;5016341;28;876;-78
2022/06/22 02:52:23;;;;;;;;;;;;;;;21.60;29.29;97198.38;4998762;28;1897;-77
2022/06/22 02:54:49;;;;;;;;;;;;;;;21.45;29.75;97209.50;5014944;28;948;-76
2022/06/22 02:57:17;;;;;;;;;;;;;;;21.48;29.57;97208.56;5014706;28;1895;-77
2022/06/22 02:59:43;;;;;;;;;;;;;;;21.57;29.53;97205.78;5015416;28;922;-77
2022/06/22 03:02:09;;;;;;;;;;;;;;;21.51;29.56;97201.97;5015238;28;982;-77
2022/06/22 03:04:34;;;;;;;;;;;;;;;21.54;29.50;97212.34;5014953;28;908;-78
2022/06/22 03:06:59;;;;;;;;;;;;;;;21.67;29.27;97194.50;5017567;28;1003;-77
2022/06/22 03:09:25;;;;;;;;;;;;;;;21.40;29.73;97206.47;5019304;28;953;-78
2022/06/22 03:11:52;;;;;;;;;;;;;;;21.44;29.51;97212.78;5002331;28;1066;-78
2022/06/22 03:14:20;;;;;;;;;;;;;;;21.55;29.47;97215.97;5018800;28;1018;-78
2022/06/22 03:16:47;;;;;;;;;;;;;;;21.56;29.51;97220.41;5019810;28;1906;-77
2022/06/22 03:19:15;;;;;;;;;;;;;;;21.49;29.82;97218.63;4958676;29;1008;-77
2022/06/22 03:25:07;;;;;;;;;;;;;;;21.49;29.60;97223.50;4959226;29;955;-77
2022/06/22 03:27:33;;;;;;;;;;;;;;;21.55;29.55;97224.47;4939339;29;1124;-77
2022/06/22 03:30:01;;;;;;;;;;;;;;;21.70;29.24;97236.81;4923900;29;975;-77
2022/06/22 03:32:32;;;;;;;;;;;;;;;21.71;29.07;97248.94;4939740;29;993;-77
2022/06/22 03:35:08;;;;;;;;;;;;;;;21.57;29.64;97255.94;4939721;29;1180;-77
2022/06/22 03:37:35;;;;;;;;;;;;;;;21.61;29.29;97265.09;4923672;29;1988;-77
2022/06/22 03:40:01;;;;;;;;;;;;;;;21.48;29.47;97259.50;4923568;29;987;-77
2022/06/22 03:42:30;;;;;;;;;;;;;;;21.55;29.54;97269.75;4923835;29;913;-77
2022/06/22 03:44:57;;;;;;;;;;;;;;;21.58;29.29;97268.84;4923571;29;1043;-77
2022/06/22 03:47:26;;;;;;;;;;;;;;;21.50;29.72;97267.53;4923537;29;1011;-77
2022/06/22 03:49:52;;;;;;;;;;;;;;;21.40;29.64;97269.53;4895937;29;989;-77
2022/06/22 03:55:40;;;;;;;;;;;;;;;21.46;29.82;97289.53;4920202;29;943;-77
2022/06/22 03:58:05;;;;;;;;;;;;;;;21.41;29.75;97281.63;4881473;29;2039;-77
2022/06/22 04:00:31;;;;;;;;;;;;;;;21.40;29.82;97280.03;4920372;29;1074;-77
2022/06/22 04:02:57;;;;;;;;;;;;;;;21.46;29.96;97289.53;4900998;29;966;-77
2022/06/22 04:05:23;;;;;;;;;;;;;;;21.57;29.63;97289.91;4863959;29;1115;-77
2022/06/22 04:07:48;;;;;;;;;;;;;;;21.51;29.82;97266.28;4863607;29;975;-77
2022/06/22 04:10:32;;;;;;;;;;;;;;;21.53;29.70;97273.06;4863508;29;994;-77
2022/06/22 04:12:58;;;;;;;;;;;;;;;21.45;29.95;97274.59;4863665;29;1187;-77
2022/06/22 04:15:33;;;;;;;;;;;;;;;21.47;29.60;97271.28;4848085;29;1104;-77
2022/06/22 04:18:03;;;;;;;;;;;;;;;21.43;29.69;97284.78;4847841;29;1895;-77
2022/06/22 04:20:51;;;;;;;;;;;;;;;21.32;30.04;97277.47;4838618;29;1097;-77
2022/06/22 04:23:19;;;;;;;;;;;;;;;21.39;29.87;97279.25;4826638;29;1085;-77
2022/06/22 04:25:44;;;;;;;;;;;;;;;21.47;29.72;97274.91;4857482;29;941;-76
2022/06/22 04:28:09;;;;;;;;;;;;;;;21.54;29.74;97285.97;4842057;29;1056;-77
2022/06/22 04:30:37;;;;;;;;;;;;;;;21.47;29.78;97279.78;4842137;29;1065;-78
2022/06/22 04:33:12;;;;;;;;;;;;;;;21.45;29.95;97287.94;4848726;29;997;-77
2022/06/22 04:35:40;;;;;;;;;;;;;;;21.46;29.54;97289.53;4889087;29;1278;-77
2022/06/22 04:38:06;;;;;;;;;;;;;;;21.48;29.49;97287.03;4931224;28;1911;-78
2022/06/22 04:40:37;;;;;;;;;;;;;;;21.58;29.42;97285.84;4977047;28;1005;-77
2022/06/22 04:43:03;;;;;;;;;;;;;;;21.52;29.31;97293.34;4976772;28;1125;-77
2022/06/22 04:45:29;;;;;;;;;;;;;;;21.57;29.34;97287.09;4960871;28;979;-77
2022/06/22 04:48:00;;;;;;;;;;;;;;;21.54;29.50;97290.84;4960857;28;1103;-77
2022/06/22 04:50:26;;;;;;;;;;;;;;;21.58;29.20;97294.31;4979900;28;956;-78
2022/06/22 04:52:53;;;;;;;;;;;;;;;21.71;29.09;97294.22;5017999;28;923;-76
2022/06/22 04:55:19;;;;;;;;;;;;;;;21.48;29.38;97287.03;5018078;28;1108;-77
2022/06/22 04:57:47;;;;;;;;;;;;;;;21.53;29.38;97287.22;5016631;28;1906;-78
2022/06/22 05:00:13;;;;;;;;;;;;;;;21.51;29.61;97286.09;4995925;28;1050;-78
2022/06/22 05:02:39;;;;;;;;;;;;;;;21.51;29.42;97286.09;4996170;28;939;-77
2022/06/22 05:05:06;;;;;;;;;;;;;;;21.58;29.36;97283.00;4979600;28;1010;-77
2022/06/22 05:07:42;;;;;;;;;;;;;;;21.57;29.29;97289.91;4980077;28;1006;-78
2022/06/22 05:10:28;;;;;;;;;;;;;;;21.64;29.32;97292.47;4979779;28;1020;-78
2022/06/22 05:12:55;;;;;;;;;;;;;;;21.68;29.13;97295.19;4995712;28;981;-77
2022/06/22 05:15:26;;;;;;;;;;;;;;;21.66;29.43;97281.50;4979323;28;1031;-77
2022/06/22 05:17:51;;;;;;;;;;;;;;;21.52;29.33;97294.13;4979454;28;1911;-77
2022/06/22 05:20:39;;;;;;;;;;;;;;;21.41;29.73;97292.97;4979670;28;1049;-77
2022/06/22 05:23:05;;;;;;;;;;;;;;;21.46;29.45;97298.03;4995768;28;1103;-77
2022/06/22 05:25:30;;;;;;;;;;;;;;;21.57;29.30;97289.91;4979047;28;1096;-77
2022/06/22 05:28:08;;;;;;;;;;;;;;;21.52;29.49;97299.00;4995431;28;990;-77
2022/06/22 05:31:00;;;;;;;;;;;;;;;21.42;29.93;97294.53;4985732;28;988;-77
2022/06/22 05:33:26;;;;;;;;;;;;;;;21.65;29.27;97301.75;4975998;28;990;-77
2022/06/22 05:36:02;;;;;;;;;;;;;;;21.54;29.61;97308.59;4960088;28;1078;-77
2022/06/22 05:38:28;;;;;;;;;;;;;;;21.57;29.32;97301.25;4960082;28;1907;-77
2022/06/22 05:40:53;;;;;;;;;;;;;;;21.70;28.98;97299.09;4975834;28;947;-77
2022/06/22 05:43:19;;;;;;;;;;;;;;;21.63;29.36;97310.72;4975994;28;927;-77
2022/06/22 05:45:49;;;;;;;;;;;;;;;21.48;29.37;97304.78;4975748;28;1240;-77
2022/06/22 05:48:16;;;;;;;;;;;;;;;21.36;29.68;97319.03;4927655;28;978;-77
2022/06/22 05:50:42;;;;;;;;;;;;;;;21.42;29.46;97317.19;4918027;29;1003;-78
2022/06/22 05:53:25;;;;;;;;;;;;;;;21.44;29.44;97309.00;4918334;29;1057;-77
2022/06/22 05:56:09;;;;;;;;;;;;;;;21.52;29.37;97310.31;4917894;29;1059;-78
2022/06/22 05:58:55;;;;;;;;;;;;;;;21.58;29.42;97305.66;4937152;29;2025;-77
2022/06/22 06:01:22;;;;;;;;;;;;;;;21.50;29.50;97307.16;4936390;29;1089;-77
2022/06/22 06:03:54;;;;;;;;;;;;;;;21.44;29.85;97303.34;4936914;29;941;-77
2022/06/22 06:06:21;;;;;;;;;;;;;;;21.50;29.51;97301.50;4937278;29;916;-78
2022/06/22 06:08:47;;;;;;;;;;;;;;;21.47;29.81;97291.91;4917560;29;1006;-77
2022/06/22 06:11:14;;;;;;;;;;;;;;;21.61;29.29;97296.25;4953675;28;1001;-77
2022/06/22 06:13:40;;;;;;;;;;;;;;;21.54;29.44;97307.81;4975524;28;1008;-77
2022/06/22 06:16:07;;;;;;;;;;;;;;;21.57;29.38;97306.91;4959364;28;1004;-77
2022/06/22 06:18:34;;;;;;;;;;;;;;;21.44;29.78;97314.66;4975103;28;1976;-77
2022/06/22 06:21:06;;;;;;;;;;;;;;;21.50;29.53;97309.97;4979136;28;1024;-77
2022/06/22 06:23:31;;;;;;;;;;;;;;;21.52;29.28;97316.00;4978099;28;1031;-77
2022/06/22 06:28:46;;;;;;;;;;;;;;;21.62;29.37;97314.81;4997476;28;969;-77
2022/06/22 06:31:16;;;;;;;;;;;;;;;21.39;29.75;97318.09;5014123;28;1263;-78
2022/06/22 06:33:43;;;;;;;;;;;;;;;21.45;29.78;97310.56;4997686;28;989;-78
2022/06/22 06:36:47;;;;;;;;;;;;;;;21.39;29.87;97324.53;5013841;28;1373;-77
2022/06/22 06:39:17;;;;;;;;;;;;;;;21.55;29.57;97315.06;4974857;28;965;-77
2022/06/22 06:42:03;;;;;;;;;;;;;;;21.53;29.75;97323.22;4897613;28;1326;-78
2022/06/22 06:44:30;;;;;;;;;;;;;;;21.49;29.67;97322.56;4940736;29;1097;-77
2022/06/22 06:47:02;;;;;;;;;;;;;;;21.47;29.63;97325.06;4940262;29;1084;-77
2022/06/22 06:49:33;;;;;;;;;;;;;;;21.45;30.04;97333.22;4928065;29;995;-77
2022/06/22 06:52:03;;;;;;;;;;;;;;;21.55;29.56;97332.03;4944056;29;963;-77
2022/06/22 06:54:31;;;;;;;;;;;;;;;21.50;29.80;97335.47;4943668;29;952;-78
2022/06/22 06:57:01;;;;;;;;;;;;;;;21.41;30.10;97332.59;4943055;29;1883;-77
2022/06/22 06:59:28;;;;;;;;;;;;;;;21.45;30.15;97327.56;4943462;29;1027;-77
2022/06/22 07:01:54;;;;;;;;;;;;;;;21.57;29.73;97329.56;4943692;29;965;-77
2022/06/22 07:04:32;;;;;;;;;;;;;;;21.58;29.66;97336.78;4943468;29;1714;-77
2022/06/22 07:07:18;;;;;;;;;;;;;;;21.43;29.82;97336.53;4943930;29;981;-78
2022/06/22 07:09:46;;;;;;;;;;;;;;;21.49;29.92;97337.50;4898274;29;1060;-77
2022/06/22 07:12:22;;;;;;;;;;;;;;;21.51;29.89;97337.06;4905843;29;1008;-77
2022/06/22 07:14:47;;;;;;;;;;;;;;;21.50;29.96;97332.63;4932814;28;1113;-77
2022/06/22 07:17:15;;;;;;;;;;;;;;;21.62;29.72;97331.78;4978365;28;1993;-77
2022/06/22 07:19:42;;;;;;;;;;;;;;;21.48;29.83;97335.94;4962214;28;960;-77
2022/06/22 07:22:22;;;;;;;;;;;;;;;21.62;29.88;97331.78;4923665;29;1280;-77
2022/06/22 07:25:08;;;;;;;;;;;;;;;21.39;29.97;97335.84;4939731;29;979;-77
2022/06/22 07:27:39;;;;;;;;;;;;;;;21.47;30.08;97330.75;4930166;29;1619;-77
2022/06/22 07:30:13;;;;;;;;;;;;;;;21.60;29.87;97328.63;4901477;29;1384;-78
2022/06/22 07:32:49;;;;;;;;;;;;;;;21.67;29.54;97338.91;4901683;29;1017;-77
2022/06/22 07:35:20;;;;;;;;;;;;;;;21.57;30.16;97343.72;4879879;29;1575;-77
2022/06/22 07:37:51;;;;;;;;;;;;;;;21.53;30.13;97323.22;4854479;29;1989;-77
2022/06/22 07:40:18;;;;;;;;;;;;;;;21.51;29.93;97337.06;4865374;29;1580;-77
2022/06/22 07:42:44;;;;;;;;;;;;;;;21.43;30.33;97324.41;4867653;29;1181;-77
2022/06/22 07:45:14;;;;;;;;;;;;;;;21.56;30.00;97327.97;4851228;29;1580;-77
2022/06/22 07:47:58;;;;;;;;;;;;;;;21.60;30.16;97331.44;4880020;29;989;-77
2022/06/22 07:50:25;;;;;;;;;;;;;;;21.64;29.91;97334.16;4904507;29;1354;-77
2022/06/22 07:52:57;;;;;;;;;;;;;;;21.64;29.67;97340.59;4889116;29;1072;-77
2022/06/22 07:55:52;;;;;;;;;;;;;;;21.51;29.91;97340.69;4901919;29;984;-77
2022/06/22 07:58:36;;;;;;;;;;;;;;;21.64;29.85;97334.94;4845327;29;1911;-78
2022/06/22 08:01:09;;;;;;;;;;;;;;;21.60;30.15;97325.78;4845521;29;937;-78
2022/06/22 08:03:34;;;;;;;;;;;;;;;21.59;29.90;97338.34;4829887;29;1053;-77
2022/06/22 08:06:02;;;;;;;;;;;;;;;21.50;29.99;97341.13;4859884;29;1134;-78
2022/06/22 08:08:31;;;;;;;;;;;;;;;21.55;30.08;97341.34;4863741;29;1005;-77
2022/06/22 08:11:02;;;;;;;;;;;;;;;21.62;30.11;97343.13;4845077;29;1020;-77
2022/06/22 08:13:29;;;;;;;;;;;;;;;21.54;30.01;97341.78;4845276;29;983;-78
2022/06/22 08:15:59;;;;;;;;;;;;;;;21.63;30.06;97344.69;4845512;29;990;-77
2022/06/22 08:18:24;;;;;;;;;;;;;;;21.55;29.92;97337.69;4845050;29;1911;-77
2022/06/22 08:20:51;;;;;;;;;;;;;;;21.71;30.13;97334.69;4845095;29;1132;-78
2022/06/22 08:23:21;;;;;;;;;;;;;;;21.76;29.69;97336.94;4834487;29;886;-78
2022/06/22 08:25:47;;;;;;;;;;;;;;;21.77;29.72;97327.16;4863556;29;958;-77
2022/06/22 08:28:33;;;;;;;;;;;;;;;21.62;30.05;97331.78;4870246;29;940;-78
2022/06/22 08:30:59;;;;;;;;;;;;;;;21.65;30.09;97341.38;4884933;29;1451;-77
2022/06/22 08:33:44;;;;;;;;;;;;;;;21.71;30.28;97337.53;4881811;29;1028;-77
2022/06/22 08:36:16;;;;;;;;;;;;;;;21.66;30.26;97335.28;4903781;29;1096;-77
2022/06/22 08:38:46;;;;;;;;;;;;;;;21.59;30.60;97327.03;4919316;29;1997;-77
2022/06/22 08:41:31;;;;;;;;;;;;;;;21.61;30.41;97330.22;4884683;29;1155;-77
2022/06/22 08:44:02;;;;;;;;;;;;;;;21.71;30.51;97314.06;4884531;29;924;-77
2022/06/22 08:46:47;;;;;;;;;;;;;;;21.66;30.17;97308.97;4898800;29;1036;-77
2022/06/22 08:49:27;;;;;;;;;;;;;;;21.65;30.44;97313.06;4919206;29;1010;-77
2022/06/22 08:52:14;;;;;;;;;;;;;;;21.60;30.28;97311.63;4919066;29;904;-77
2022/06/22 08:54:59;;;;;;;;;;;;;;;21.51;30.52;97315.19;4774969;29;1156;-77
2022/06/22 08:57:43;;;;;;;;;;;;;;;21.54;30.39;97313.47;4774874;30;2378;-77
2022/06/22 09:00:23;;;;;;;;;;;;;;;21.61;30.36;97320.94;4763204;29;1041;-78
2022/06/22 09:02:54;;;;;;;;;;;;;;;21.58;30.42;97314.13;4754274;30;948;-77
2022/06/22 09:05:27;;;;;;;;;;;;;;;21.72;30.37;97316.44;4784700;29;1122;-77
2022/06/22 09:08:11;;;;;;;;;;;;;;;21.71;30.10;97323.38;4789426;30;1016;-76
2022/06/22 09:10:48;;;;;;;;;;;;;;;21.64;30.32;97317.16;4789586;29;1065;-77
2022/06/22 09:13:15;;;;;;;;;;;;;;;21.71;30.22;97309.22;4823165;29;1049;-78
2022/06/22 09:15:41;;;;;;;;;;;;;;;21.55;30.49;97298.06;4810678;29;1032;-77
2022/06/22 09:18:13;;;;;;;;;;;;;;;21.64;30.33;97283.97;4792532;29;1915;-77
2022/06/22 09:20:50;;;;;;;;;;;;;;;21.63;30.67;97281.63;4807466;29;1029;-77
2022/06/22 09:23:20;;;;;;;;;;;;;;;21.45;31.00;97282.28;4807786;29;1161;-77
2022/06/22 09:25:47;;;;;;;;;;;;;;;21.77;30.15;97279.03;4790853;29;943;-77
2022/06/22 09:28:26;;;;;;;;;;;;;;;21.77;30.32;97276.19;4786643;30;1575;-77
2022/06/22 09:31:02;;;;;;;;;;;;;;;21.68;30.39;97278.97;4798059;29;1642;-77
2022/06/22 09:33:30;;;;;;;;;;;;;;;21.68;30.25;97283.84;4861574;29;1615;-77
2022/06/22 09:35:59;;;;;;;;;;;;;;;21.79;30.42;97279.34;4856434;29;1448;-77
2022/06/22 09:38:44;;;;;;;;;;;;;;;21.66;30.55;97278.66;4867598;29;1992;-77
2022/06/22 09:41:21;;;;;;;;;;;;;;;21.76;30.53;97291.63;4849176;29;1267;-77
2022/06/22 09:44:05;;;;;;;;;;;;;;;21.78;30.43;97279.81;4880341;29;1055;-77
2022/06/22 09:46:31;;;;;;;;;;;;;;;21.66;30.37;97287.16;4865041;29;1065;-77
2022/06/22 09:49:11;;;;;;;;;;;;;;;21.70;30.39;97279.28;4872554;29;1119;-77
2022/06/22 09:51:55;;;;;;;;;;;;;;;21.65;30.60;97285.56;4880436;29;1168;-77
2022/06/22 09:57:36;;;;;;;;;;;;;;;21.77;30.29;97272.59;4866250;29;2046;-77
2022/06/22 10:00:05;;;;;;;;;;;;;;;21.75;30.43;97273.03;4849794;29;1210;-77
2022/06/22 10:02:33;;;;;;;;;;;;;;;21.83;30.24;97277.16;4843251;29;1027;-77
2022/06/22 10:05:05;;;;;;;;;;;;;;;21.83;30.38;97268.69;4869040;29;959;-77
2022/06/22 10:07:33;;;;;;;;;;;;;;;21.77;30.34;97264.88;4866880;29;939;-77
2022/06/22 10:09:58;;;;;;;;;;;;;;;21.73;30.65;97263.44;4861797;29;961;-78
2022/06/22 10:12:24;;;;;;;;;;;;;;;21.77;30.53;97264.88;4861822;29;944;-77
2022/06/22 10:14:52;;;;;;;;;;;;;;;21.77;30.41;97273.38;4861810;29;1016;-77
2022/06/22 10:17:18;;;;;;;;;;;;;;;21.84;30.45;97275.91;4884493;29;2045;-77
2022/06/22 10:19:43;;;;;;;;;;;;;;;21.84;30.44;97275.13;4936609;29;972;-77
2022/06/22 10:22:14;;;;;;;;;;;;;;;21.65;30.76;97268.56;4925361;29;1276;-77
2022/06/22 10:24:47;;;;;;;;;;;;;;;21.64;30.93;97269.81;4917144;29;1480;-76
2022/06/22 10:27:19;;;;;;;;;;;;;;;21.68;30.78;97270.47;4917463;29;1034;-78
2022/06/22 10:30:02;;;;;;;;;;;;;;;21.73;30.90;97263.44;4917595;29;920;-78
2022/06/22 10:32:43;;;;;;;;;;;;;;;21.59;31.08;97270.41;4917802;29;921;-77
2022/06/22 10:35:08;;;;;;;;;;;;;;;21.70;30.66;97264.34;4928030;29;1057;-77
2022/06/22 10:37:39;;;;;;;;;;;;;;;21.69;30.73;97274.88;4955679;29;2008;-77
2022/06/22 10:45:56;;;;;;;;;;;;;;;21.74;30.64;97265.78;4917526;29;937;-77
2022/06/22 10:48:21;;;;;;;;;;;;;;;21.87;30.31;97262.88;4911192;29;1016;-77
2022/06/22 10:50:59;;;;;;;;;;;;;;;21.66;30.74;97253.19;4936317;29;966;-78
2022/06/22 10:53:31;;;;;;;;;;;;;;;21.41;31.16;97242.03;4936176;29;943;-77
2022/06/22 10:55:56;;;;;;;;;;;;;;;21.73;30.59;97246.44;4936345;29;1020;-77
2022/06/22 10:58:42;;;;;;;;;;;;;;;21.71;30.80;97244.09;4936418;29;1914;-77
2022/06/22 11:01:18;;;;;;;;;;;;;;;21.62;30.89;97244.03;4917290;29;1055;-77
2022/06/22 11:03:44;;;;;;;;;;;;;;;21.55;31.03;97239.44;4901618;29;1007;-78
2022/06/22 11:06:12;;;;;;;;;;;;;;;21.68;30.87;97228.00;4917109;29;1006;-77
2022/06/22 11:08:49;;;;;;;;;;;;;;;21.68;30.93;97228.00;4917568;29;949;-77
2022/06/22 11:11:17;;;;;;;;;;;;;;;21.78;31.00;97226.81;4917596;29;1080;-77
2022/06/22 11:14:01;;;;;;;;;;;;;;;21.79;30.93;97228.38;4917345;29;1085;-77
2022/06/22 11:16:27;;;;;;;;;;;;;;;21.71;31.04;97231.94;4917146;29;951;-77
2022/06/22 11:18:55;;;;;;;;;;;;;;;21.67;31.26;97243.44;4915766;28;1919;-77
2022/06/22 11:21:26;;;;;;;;;;;;;;;21.88;30.76;97236.13;4974561;28;1048;-77
2022/06/22 11:24:05;;;;;;;;;;;;;;;21.88;30.59;97232.50;4974593;28;970;-77
2022/06/22 11:32:40;;;;;;;;;;;;;;;21.83;30.60;97234.69;4901557;29;1000;-77
2022/06/22 11:35:08;;;;;;;;;;;;;;;21.75;30.75;97239.03;4881092;29;1200;-77
2022/06/22 11:37:42;;;;;;;;;;;;;;;21.70;31.13;97241.69;4858423;29;1907;-77
2022/06/22 11:40:23;;;;;;;;;;;;;;;21.77;30.95;97247.09;4894546;29;1498;-78
2022/06/22 11:43:04;;;;;;;;;;;;;;;21.68;30.99;97245.00;4889588;29;1644;-78
2022/06/22 11:45:51;;;;;;;;;;;;;;;21.72;31.38;97240.00;4888757;29;1533;-78
2022/06/22 11:48:19;;;;;;;;;;;;;;;21.73;31.19;97244.41;4882779;29;990;-77
2022/06/22 11:50:53;;;;;;;;;;;;;;;21.76;31.16;97246.31;4883012;29;905;-77
2022/06/22 11:53:37;;;;;;;;;;;;;;;21.72;30.99;97234.31;4882939;29;1060;-78
2022/06/22 11:56:29;;;;;;;;;;;;;;;21.90;30.57;97232.81;4882409;29;974;-78
2022/06/22 11:59:04;;;;;;;;;;;;;;;21.78;30.82;97235.28;4891330;29;1918;-78
2022/06/22 12:01:42;;;;;;;;;;;;;;;21.81;30.81;97237.22;4845146;29;1569;-78
2022/06/22 12:04:13;;;;;;;;;;;;;;;21.78;30.83;97229.63;4825061;29;1528;-77
2022/06/22 12:06:51;;;;;;;;;;;;;;;21.79;30.89;97228.38;4837158;29;1605;-78
2022/06/22 12:09:35;;;;;;;;;;;;;;;21.76;31.00;97223.66;4836726;29;1588;-77
2022/06/22 12:12:19;;;;;;;;;;;;;;;21.75;30.99;97222.06;4874530;29;1493;-77
2022/06/22 12:17:37;;;;;;;;;;;;;;;21.70;31.06;97217.00;4899777;29;2042;-78
2022/06/22 12:20:28;;;;;;;;;;;;;;;21.81;30.85;97217.38;4901178;29;984;-78
2022/06/22 12:22:54;;;;;;;;;;;;;;;21.82;30.91;97216.13;4863371;29;1181;-77
2022/06/22 12:25:25;;;;;;;;;;;;;;;21.73;31.20;97221.75;4863539;29;1119;-77
2022/06/22 12:28:08;;;;;;;;;;;;;;;21.73;31.09;97216.09;4863259;29;1050;-77
2022/06/22 12:30:47;;;;;;;;;;;;;;;21.69;31.46;97201.28;4863794;29;1138;-78
2022/06/22 12:33:13;;;;;;;;;;;;;;;21.91;31.09;97206.06;4881020;29;1021;-78
2022/06/22 12:35:51;;;;;;;;;;;;;;;21.89;30.93;97211.44;4932210;29;1255;-77
2022/06/22 12:38:20;;;;;;;;;;;;;;;21.77;31.20;97213.91;4957658;28;1894;-77
2022/06/22 12:40:45;;;;;;;;;;;;;;;21.91;30.93;97218.19;4957879;29;984;-77
2022/06/22 12:43:29;;;;;;;;;;;;;;;21.88;30.93;97226.84;4957783;29;926;-77
2022/06/22 12:46:05;;;;;;;;;;;;;;;21.85;31.24;97220.84;4957352;29;1003;-77
2022/06/22 12:49:00;;;;;;;;;;;;;;;21.92;31.02;97216.16;4957331;29;962;-77
2022/06/22 12:51:40;;;;;;;;;;;;;;;21.77;31.16;97218.78;4957051;29;1035;-77
2022/06/22 12:54:07;;;;;;;;;;;;;;;21.90;30.97;97215.84;4957175;29;1074;-77
2022/06/22 12:56:33;;;;;;;;;;;;;;;21.68;31.18;97196.09;4941547;29;913;-77
2022/06/22 12:59:08;;;;;;;;;;;;;;;21.78;31.04;97209.03;4961032;28;1973;-77
2022/06/22 13:01:33;;;;;;;;;;;;;;;21.85;31.25;97208.72;4958060;28;1576;-77
2022/06/22 13:04:05;;;;;;;;;;;;;;;21.74;31.56;97209.16;4945638;29;1457;-78
2022/06/22 13:06:31;;;;;;;;;;;;;;;21.78;31.62;97203.38;4886733;29;1296;-78
2022/06/22 13:08:57;;;;;;;;;;;;;;;21.72;31.64;97200.34;4900155;29;1003;-78
2022/06/22 13:11:23;;;;;;;;;;;;;;;21.79;31.40;97188.72;4884198;29;994;-78
2022/06/22 13:13:48;;;;;;;;;;;;;;;21.84;31.42;97193.78;4884653;29;1019;-78
2022/06/22 13:16:30;;;;;;;;;;;;;;;22.02;31.06;97197.94;4899784;29;1077;-78
2022/06/22 13:18:56;;;;;;;;;;;;;;;22.01;31.36;97193.53;4884093;29;1978;-78
2022/06/22 13:21:37;;;;;;;;;;;;;;;21.98;31.24;97188.81;4900059;29;1007;-78
2022/06/22 13:24:28;;;;;;;;;;;;;;;21.85;31.32;97186.84;4884105;29;960;-78
2022/06/22 13:26:56;;;;;;;;;;;;;;;22.01;31.29;97179.34;4827669;29;1095;-77
2022/06/22 13:29:30;;;;;;;;;;;;;;;22.02;31.06;97190.25;4843832;29;1100;-78
2022/06/22 13:31:58;;;;;;;;;;;;;;;21.98;31.32;97189.59;4843759;29;921;-78
2022/06/22 13:34:35;;;;;;;;;;;;;;;21.98;31.43;97197.31;4853317;29;974;-78
2022/06/22 13:37:03;;;;;;;;;;;;;;;21.91;31.62;97206.84;4876347;29;1883;-78
2022/06/22 13:39:34;;;;;;;;;;;;;;;21.94;31.39;97193.81;4899619;29;994;-78
2022/06/22 13:42:11;;;;;;;;;;;;;;;21.94;31.37;97188.16;4899626;29;954;-79
2022/06/22 13:44:56;;;;;;;;;;;;;;;21.89;31.46;97185.94;4899221;29;1011;-77
2022/06/22 13:47:40;;;;;;;;;;;;;;;22.04;31.37;97187.72;4899762;29;940;-78
2022/06/22 13:50:30;;;;;;;;;;;;;;;22.06;31.22;97185.19;4898664;29;992;-79
2022/06/22 13:52:56;;;;;;;;;;;;;;;22.15;31.01;97186.53;4899119;29;1034;-79
2022/06/22 13:55:24;;;;;;;;;;;;;;;22.16;31.13;97186.03;4899147;29;1133;-78
2022/06/22 13:58:01;;;;;;;;;;;;;;;22.02;31.24;97183.75;4915236;29;1976;-78